Time;durP1;ratioP1;P1;durP2;ratioP2;P2;SDS_P1;SDS_P2;PMS_P1;PMS_P2;Temp;Humidity;BMP_temperature;BMP_pressure;BME280_temperature;BME280_humidity;BME280_pressure;Samples;Min_cycle;Max_cycle;Signal;HPM_P1;HPM_P2
2022/02/23 00:00:18;;;;;;;5.43;1.10;;;10.90;73.10;;;;;;5055981;28;20078;-81
2022/02/23 00:02:44;;;;;;;5.00;1.23;;;10.90;72.80;;;;;;5070047;28;20463;-81
2022/02/23 00:05:09;;;;;;;6.85;1.65;;;10.90;72.40;;;;;;5071640;28;20451;-81
2022/02/23 00:07:35;;;;;;;3.78;1.52;;;10.80;72.20;;;;;;5067680;28;20044;-80
2022/02/23 00:10:01;;;;;;;4.97;1.48;;;10.80;72.80;;;;;;5069106;28;20012;-80
2022/02/23 00:12:27;;;;;;;5.13;1.30;;;10.70;72.60;;;;;;5069027;28;20032;-80
2022/02/23 00:14:52;;;;;;;5.28;1.38;;;10.70;72.90;;;;;;5068959;28;20025;-80
2022/02/23 00:17:20;;;;;;;9.60;1.90;;;10.70;73.00;;;;;;5071515;28;20031;-80
2022/02/23 00:19:46;;;;;;;3.45;1.33;;;10.70;73.30;;;;;;5068030;28;20319;-81
2022/02/23 00:22:12;;;;;;;4.43;1.00;;;10.60;73.30;;;;;;5069270;28;20119;-81
2022/02/23 00:24:37;;;;;;;5.93;1.35;;;10.60;73.60;;;;;;5069248;28;20147;-82
2022/02/23 00:27:03;;;;;;;6.28;1.48;;;10.70;73.40;;;;;;5067994;28;20093;-81
2022/02/23 00:29:29;;;;;;;7.60;1.38;;;10.70;73.40;;;;;;5070776;28;20052;-82
2022/02/23 00:31:55;;;;;;;6.18;1.33;;;10.60;73.30;;;;;;5069317;28;20024;-82
2022/02/23 00:34:20;;;;;;;5.97;1.55;;;10.60;74.50;;;;;;5068306;28;20020;-82
2022/02/23 00:36:46;;;;;;;8.48;1.63;;;10.60;73.60;;;;;;5069257;28;20064;-81
2022/02/23 00:39:11;;;;;;;6.90;1.50;;;10.60;73.80;;;;;;5068256;28;20077;-82
2022/02/23 00:41:37;;;;;;;6.20;1.40;;;10.50;73.70;;;;;;5068864;28;20039;-82
2022/02/23 00:44:03;;;;;;;8.30;1.63;;;10.60;73.90;;;;;;5067778;28;20021;-82
2022/02/23 00:46:28;;;;;;;5.03;1.33;;;10.50;73.70;;;;;;5065258;28;20482;-82
2022/02/23 00:48:55;;;;;;;5.88;1.23;;;10.50;75.00;;;;;;5060437;28;20029;-82
2022/02/23 00:51:21;;;;;;;6.57;1.40;;;10.40;74.40;;;;;;5069524;28;20479;-82
2022/02/23 00:53:47;;;;;;;6.45;1.27;;;10.50;74.50;;;;;;5068353;28;20046;-82
2022/02/23 00:56:13;;;;;;;6.05;1.20;;;10.50;74.60;;;;;;5071067;28;20481;-82
2022/02/23 00:58:38;;;;;;;7.70;1.30;;;10.50;74.70;;;;;;5067908;28;20042;-82
2022/02/23 01:01:04;;;;;;;7.40;1.60;;;10.50;74.70;;;;;;5069274;28;20400;-82
2022/02/23 01:03:30;;;;;;;6.35;1.63;;;10.40;74.40;;;;;;5067985;28;20028;-81
2022/02/23 01:05:56;;;;;;;3.22;1.00;;;10.40;74.80;;;;;;5069188;28;20025;-82
2022/02/23 01:08:22;;;;;;;6.82;1.75;;;10.40;75.20;;;;;;5071424;28;20564;-81
2022/02/23 01:10:48;;;;;;;6.32;1.70;;;10.40;75.70;;;;;;5067658;28;20066;-81
2022/02/23 01:13:13;;;;;;;5.40;1.55;;;10.50;76.00;;;;;;5068509;28;20029;-82
2022/02/23 01:15:39;;;;;;;7.75;1.33;;;10.40;75.70;;;;;;5067461;28;20028;-83
2022/02/23 01:18:05;;;;;;;4.35;1.35;;;10.40;75.50;;;;;;5068904;28;20507;-82
2022/02/23 01:20:30;;;;;;;6.75;1.58;;;10.40;75.60;;;;;;5069682;28;20519;-82
2022/02/23 01:22:58;;;;;;;4.70;1.52;;;10.40;75.70;;;;;;5069775;28;20194;-82
2022/02/23 01:25:25;;;;;;;5.97;1.23;;;10.40;75.80;;;;;;5067532;28;20024;-82
2022/02/23 01:27:51;;;;;;;4.22;1.15;;;10.40;76.10;;;;;;5068398;28;20044;-82
2022/02/23 01:30:17;;;;;;;4.72;1.30;;;10.40;76.10;;;;;;5068859;28;20025;-82
2022/02/23 01:32:43;;;;;;;10.15;2.08;;;10.30;75.90;;;;;;5068632;28;20377;-82
2022/02/23 01:35:10;;;;;;;9.30;2.35;;;10.30;75.80;;;;;;5073369;28;20047;-83
2022/02/23 01:37:36;;;;;;;6.10;1.63;;;10.30;76.00;;;;;;5070676;28;20373;-83
2022/02/23 01:40:03;;;;;;;7.63;1.67;;;10.20;76.10;;;;;;5072267;28;20078;-83
2022/02/23 01:42:29;;;;;;;7.68;1.90;;;10.20;76.50;;;;;;5071698;28;20066;-83
2022/02/23 01:44:54;;;;;;;8.32;2.05;;;10.20;76.80;;;;;;5072432;28;20017;-83
2022/02/23 01:47:20;;;;;;;6.03;1.63;;;10.20;76.40;;;;;;5062814;28;20037;-83
2022/02/23 01:49:46;;;;;;;5.72;1.70;;;10.10;76.20;;;;;;5070325;28;20021;-81
2022/02/23 01:52:11;;;;;;;7.03;1.70;;;10.10;76.20;;;;;;5070052;28;20039;-81
2022/02/23 01:54:37;;;;;;;5.18;1.45;;;10.00;76.90;;;;;;5072017;28;20059;-81
2022/02/23 01:57:03;;;;;;;5.20;1.80;;;9.90;76.70;;;;;;5071662;28;20081;-81
2022/02/23 01:59:28;;;;;;;7.22;1.67;;;9.80;77.20;;;;;;5073142;28;20082;-82
2022/02/23 02:01:54;;;;;;;11.10;2.28;;;9.80;77.30;;;;;;5072476;28;20048;-82
2022/02/23 02:04:23;;;;;;;5.13;1.52;;;9.70;77.80;;;;;;5070126;28;20028;-82
2022/02/23 02:06:50;;;;;;;6.55;1.83;;;9.60;77.80;;;;;;5070096;28;20028;-82
2022/02/23 02:09:16;;;;;;;5.50;1.27;;;9.60;77.70;;;;;;5071965;28;20489;-83
2022/02/23 02:11:42;;;;;;;7.45;1.58;;;9.50;77.60;;;;;;5071628;28;20035;-82
2022/02/23 02:14:08;;;;;;;5.75;1.30;;;9.50;78.50;;;;;;5072424;28;20020;-82
2022/02/23 02:16:34;;;;;;;6.43;1.73;;;9.50;78.50;;;;;;5069987;28;20477;-83
2022/02/23 02:19:03;;;;;;;7.40;1.83;;;9.50;79.20;;;;;;5071734;28;20149;-82
2022/02/23 02:21:30;;;;;;;6.15;1.65;;;9.50;79.40;;;;;;5071216;28;20521;-82
2022/02/23 02:23:56;;;;;;;6.90;1.60;;;9.60;79.40;;;;;;5071626;28;20027;-82
2022/02/23 02:26:21;;;;;;;8.63;2.00;;;9.50;79.00;;;;;;5073272;28;20040;-82
2022/02/23 02:28:47;;;;;;;8.80;1.95;;;9.50;79.80;;;;;;5071848;28;20020;-82
2022/02/23 02:31:12;;;;;;;9.63;1.90;;;9.50;80.40;;;;;;5071395;28;20047;-82
2022/02/23 02:33:38;;;;;;;8.32;1.80;;;9.50;80.00;;;;;;5071448;28;20043;-82
2022/02/23 02:36:04;;;;;;;13.00;2.78;;;9.50;79.90;;;;;;5070064;28;20489;-82
2022/02/23 02:38:29;;;;;;;7.30;1.55;;;9.50;79.90;;;;;;5072721;28;20025;-82
2022/02/23 02:40:55;;;;;;;9.18;2.63;;;9.50;80.30;;;;;;5071765;28;20027;-83
2022/02/23 02:43:21;;;;;;;7.90;2.15;;;9.50;80.30;;;;;;5071405;28;20094;-84
2022/02/23 02:45:46;;;;;;;12.10;3.05;;;9.50;80.00;;;;;;5069998;28;20028;-83
2022/02/23 02:48:12;;;;;;;8.27;2.15;;;9.50;80.20;;;;;;5058083;28;20131;-83
2022/02/23 02:50:37;;;;;;;10.10;1.95;;;9.50;80.40;;;;;;5070027;28;20485;-83
2022/02/23 02:53:03;;;;;;;9.13;2.13;;;9.50;80.70;;;;;;5069627;28;20556;-83
2022/02/23 02:55:29;;;;;;;8.18;2.05;;;9.50;80.60;;;;;;5069227;28;20496;-83
2022/02/23 02:57:54;;;;;;;8.98;2.05;;;9.60;80.30;;;;;;5071046;28;20025;-83
2022/02/23 03:00:20;;;;;;;7.10;1.77;;;9.60;81.00;;;;;;5070889;28;20024;-83
2022/02/23 03:02:46;;;;;;;8.35;1.98;;;9.60;80.10;;;;;;5071070;28;20028;-82
2022/02/23 03:05:11;;;;;;;7.63;2.35;;;9.60;80.30;;;;;;5070683;28;20033;-83
2022/02/23 03:07:37;;;;;;;6.97;1.85;;;9.60;80.20;;;;;;5070564;28;20043;-83
2022/02/23 03:10:04;;;;;;;8.05;2.00;;;9.70;80.50;;;;;;5069662;28;20029;-83
2022/02/23 03:12:29;;;;;;;6.65;1.70;;;9.60;80.20;;;;;;5070328;28;20489;-83
2022/02/23 03:14:55;;;;;;;8.32;2.03;;;9.60;80.20;;;;;;5068820;28;20025;-83
2022/02/23 03:17:20;;;;;;;8.82;1.98;;;9.60;80.30;;;;;;5072125;28;20029;-83
2022/02/23 03:19:46;;;;;;;6.05;1.50;;;9.60;80.30;;;;;;5068497;28;20028;-83
2022/02/23 03:22:12;;;;;;;9.55;1.80;;;9.60;80.20;;;;;;5069613;28;20032;-83
2022/02/23 03:24:37;;;;;;;5.50;1.63;;;9.60;80.20;;;;;;5070103;28;20123;-83
2022/02/23 03:27:03;;;;;;;10.18;1.92;;;9.60;80.40;;;;;;5069846;28;20055;-83
2022/02/23 03:29:29;;;;;;;9.45;1.83;;;9.60;80.50;;;;;;5070398;28;20025;-83
2022/02/23 03:31:54;;;;;;;7.15;1.83;;;9.60;80.40;;;;;;5070718;28;20074;-83
2022/02/23 03:34:20;;;;;;;7.22;1.65;;;9.60;80.40;;;;;;5066891;28;20052;-83
2022/02/23 03:36:45;;;;;;;5.65;1.85;;;9.70;80.70;;;;;;5069299;28;20489;-83
2022/02/23 03:39:11;;;;;;;9.38;2.03;;;9.70;81.00;;;;;;5069594;28;20598;-83
2022/02/23 03:41:37;;;;;;;8.27;1.90;;;9.70;80.70;;;;;;5069129;28;20033;-83
2022/02/23 03:44:02;;;;;;;7.15;1.95;;;9.70;80.70;;;;;;5071504;28;20385;-83
2022/02/23 03:46:28;;;;;;;6.55;1.77;;;9.70;80.80;;;;;;5065483;28;20045;-83
2022/02/23 03:48:54;;;;;;;12.05;2.10;;;9.70;81.00;;;;;;5060679;28;20111;-83
2022/02/23 03:51:19;;;;;;;7.78;1.80;;;9.70;80.80;;;;;;5069564;28;20435;-83
2022/02/23 03:53:45;;;;;;;8.05;1.80;;;9.70;80.90;;;;;;5067955;28;20515;-83
2022/02/23 03:56:38;;;;;;;10.15;2.15;;;9.70;81.00;;;;;;5071128;28;20033;-83
2022/02/23 03:58:56;;;;;;;7.00;1.70;;;9.70;80.50;;;;;;5070315;28;20115;-83
2022/02/23 04:01:22;;;;;;;7.03;1.88;;;9.70;81.10;;;;;;5069383;28;20112;-83
2022/02/23 04:03:47;;;;;;;7.10;1.70;;;9.70;81.20;;;;;;5069251;28;20078;-83
2022/02/23 04:06:13;;;;;;;6.28;1.65;;;9.70;81.10;;;;;;5068728;28;20032;-83
2022/02/23 04:08:38;;;;;;;6.07;1.48;;;9.70;81.30;;;;;;5068356;28;20040;-84
2022/02/23 04:11:04;;;;;;;7.32;2.30;;;9.70;81.10;;;;;;5070931;28;20420;-83
2022/02/23 04:13:30;;;;;;;6.25;1.60;;;9.70;81.20;;;;;;5067961;28;20086;-84
2022/02/23 04:15:56;;;;;;;8.10;1.80;;;9.70;81.30;;;;;;5069165;28;20056;-84
2022/02/23 04:18:21;;;;;;;8.23;2.83;;;9.70;81.10;;;;;;5069402;28;20064;-83
2022/02/23 04:20:47;;;;;;;5.38;1.80;;;9.70;81.30;;;;;;5067666;28;20059;-84
2022/02/23 04:23:12;;;;;;;5.13;2.00;;;9.70;81.30;;;;;;5071149;28;20403;-84
2022/02/23 04:25:38;;;;;;;7.53;2.20;;;9.70;81.30;;;;;;5068953;28;20024;-83
2022/02/23 04:28:04;;;;;;;7.65;2.05;;;9.70;81.00;;;;;;5068685;28;20150;-83
2022/02/23 04:30:30;;;;;;;7.63;2.10;;;9.70;81.10;;;;;;5069051;28;20028;-83
2022/02/23 04:32:55;;;;;;;9.02;2.33;;;9.70;81.60;;;;;;5068311;28;20486;-83
2022/02/23 04:35:21;;;;;;;9.88;2.30;;;9.70;81.30;;;;;;5069333;28;20158;-83
2022/02/23 04:37:46;;;;;;;6.63;2.10;;;9.70;81.50;;;;;;5068751;28;20033;-83
2022/02/23 04:40:12;;;;;;;7.50;2.05;;;9.70;81.40;;;;;;5068925;28;20693;-83
2022/02/23 04:42:38;;;;;;;6.82;2.20;;;9.70;81.60;;;;;;5067526;28;20039;-83
2022/02/23 04:45:04;;;;;;;7.05;2.00;;;9.70;81.20;;;;;;5069606;28;20048;-84
2022/02/23 04:47:30;;;;;;;5.85;1.80;;;9.70;81.30;;;;;;5058212;28;20033;-85
2022/02/23 04:49:57;;;;;;;6.18;1.73;;;9.70;81.30;;;;;;5069354;28;20075;-84
2022/02/23 04:52:24;;;;;;;4.78;1.65;;;9.70;81.10;;;;;;5067630;28;20020;-85
2022/02/23 04:54:51;;;;;;;8.40;2.45;;;9.70;81.60;;;;;;5068979;28;20102;-84
2022/02/23 04:57:16;;;;;;;6.10;2.08;;;9.70;81.40;;;;;;5069164;28;20036;-85
2022/02/23 04:59:42;;;;;;;7.90;2.33;;;9.70;81.50;;;;;;5068722;28;20086;-83
2022/02/23 05:02:09;;;;;;;5.97;1.92;;;9.70;81.50;;;;;;5071002;28;20025;-83
2022/02/23 05:04:35;;;;;;;8.43;1.70;;;9.70;81.40;;;;;;5067187;28;20025;-83
2022/02/23 05:07:01;;;;;;;5.25;1.70;;;9.70;81.60;;;;;;5068812;28;20056;-83
2022/02/23 05:09:27;;;;;;;5.97;2.28;;;9.70;81.20;;;;;;5068900;28;20028;-83
2022/02/23 05:11:52;;;;;;;9.65;2.50;;;9.70;81.60;;;;;;5071832;28;20078;-85
2022/02/23 05:14:20;;;;;;;5.32;1.92;;;9.60;81.90;;;;;;5073574;28;20032;-84
2022/02/23 05:16:45;;;;;;;5.70;1.98;;;9.60;81.60;;;;;;5070794;28;20404;-84
2022/02/23 05:19:11;;;;;;;7.03;1.80;;;9.60;81.20;;;;;;5070702;28;20484;-85
2022/02/23 05:21:36;;;;;;;6.03;1.98;;;9.50;81.50;;;;;;5070944;28;20024;-85
2022/02/23 05:24:02;;;;;;;8.27;2.17;;;9.60;81.80;;;;;;5072879;28;20031;-85
2022/02/23 05:26:28;;;;;;;6.03;1.95;;;9.60;81.80;;;;;;5072087;28;20051;-85
2022/02/23 05:28:54;;;;;;;8.18;1.80;;;9.50;82.00;;;;;;5060018;28;20108;-85
2022/02/23 05:31:19;;;;;;;6.00;2.10;;;9.50;81.90;;;;;;5068385;28;20017;-85
2022/02/23 05:33:45;;;;;;;6.05;1.88;;;9.50;82.20;;;;;;5072046;28;20032;-85
2022/02/23 05:36:10;;;;;;;5.60;2.00;;;9.50;82.70;;;;;;5072391;28;20016;-85
2022/02/23 05:38:36;;;;;;;6.82;1.90;;;9.50;82.70;;;;;;5071629;28;20092;-85
2022/02/23 05:41:03;;;;;;;7.50;1.63;;;9.40;82.50;;;;;;5073043;28;20025;-83
2022/02/23 05:43:29;;;;;;;6.90;1.75;;;9.40;83.20;;;;;;5071048;28;20491;-83
2022/02/23 05:45:55;;;;;;;7.65;2.00;;;9.40;84.10;;;;;;5070855;28;20028;-83
2022/02/23 05:48:20;;;;;;;11.60;1.80;;;9.40;83.60;;;;;;5072057;28;20032;-82
2022/02/23 05:50:46;;;;;;;5.55;1.77;;;9.40;83.30;;;;;;5071823;28;20532;-82
2022/02/23 05:53:12;;;;;;;7.00;1.83;;;9.50;83.90;;;;;;5074052;28;20508;-83
2022/02/23 05:55:38;;;;;;;7.93;1.77;;;9.50;83.50;;;;;;5071252;28;20493;-83
2022/02/23 05:58:03;;;;;;;6.00;2.15;;;9.50;83.40;;;;;;5068723;28;20090;-83
2022/02/23 06:00:29;;;;;;;11.30;2.55;;;9.60;83.20;;;;;;5071884;28;20016;-83
2022/02/23 06:02:55;;;;;;;6.65;2.05;;;9.50;83.00;;;;;;5071539;28;20040;-82
2022/02/23 06:05:20;;;;;;;12.90;2.38;;;9.50;82.60;;;;;;5072106;28;20116;-82
2022/02/23 06:07:46;;;;;;;9.00;2.22;;;9.50;82.70;;;;;;5071532;28;20036;-82
2022/02/23 06:10:12;;;;;;;4.78;1.60;;;9.50;82.60;;;;;;5068624;28;20036;-83
2022/02/23 06:12:37;;;;;;;7.80;2.00;;;9.50;82.40;;;;;;5071653;28;20517;-83
2022/02/23 06:15:03;;;;;;;8.90;2.00;;;9.50;82.80;;;;;;5070570;28;20027;-83
2022/02/23 06:17:29;;;;;;;7.85;2.20;;;9.50;82.40;;;;;;5071662;28;20119;-82
2022/02/23 06:19:55;;;;;;;6.80;1.92;;;9.50;82.20;;;;;;5071642;28;20095;-82
2022/02/23 06:22:20;;;;;;;5.60;1.45;;;9.40;82.40;;;;;;5070085;28;20115;-83
2022/02/23 06:24:46;;;;;;;8.43;1.95;;;9.40;82.10;;;;;;5069568;28;20135;-83
2022/02/23 06:27:13;;;;;;;11.45;2.30;;;9.40;82.30;;;;;;5071091;28;20076;-83
2022/02/23 06:29:39;;;;;;;6.47;2.08;;;9.40;82.70;;;;;;5071209;28;20062;-83
2022/02/23 06:32:07;;;;;;;7.70;1.75;;;9.40;82.50;;;;;;5073013;28;20031;-83
2022/02/23 06:34:34;;;;;;;10.38;2.25;;;9.40;82.20;;;;;;5070937;28;20485;-83
2022/02/23 06:37:02;;;;;;;10.32;2.58;;;9.40;82.60;;;;;;5071166;28;20035;-83
2022/02/23 06:39:33;;;;;;;8.52;2.53;;;9.30;82.30;;;;;;5071080;28;20116;-83
2022/02/23 06:42:01;;;;;;;6.78;1.80;;;9.40;82.50;;;;;;5070159;28;20028;-83
2022/02/23 06:44:26;;;;;;;9.02;2.30;;;9.40;82.40;;;;;;5072357;28;20029;-83
2022/02/23 06:46:52;;;;;;;5.82;2.38;;;9.40;82.40;;;;;;5069170;28;20093;-83
2022/02/23 06:49:18;;;;;;;9.48;2.17;;;9.50;82.40;;;;;;5069454;28;20032;-83
2022/02/23 06:51:47;;;;;;;7.03;2.55;;;9.40;82.20;;;;;;5068934;28;20036;-82
2022/02/23 06:54:12;;;;;;;8.60;2.30;;;9.40;81.90;;;;;;5071089;28;20039;-81
2022/02/23 06:56:38;;;;;;;6.78;2.00;;;9.30;81.90;;;;;;5069351;28;20016;-82
2022/02/23 06:59:04;;;;;;;4.60;2.20;;;9.30;82.00;;;;;;5072659;28;20029;-82
2022/02/23 07:01:30;;;;;;;6.28;2.65;;;9.30;82.30;;;;;;5069133;28;20020;-83
2022/02/23 07:03:56;;;;;;;9.30;2.30;;;9.30;82.40;;;;;;5070621;28;20024;-84
2022/02/23 07:06:21;;;;;;;5.07;1.70;;;9.30;82.80;;;;;;5068645;28;20111;-83
2022/02/23 07:08:49;;;;;;;6.47;1.90;;;9.30;82.40;;;;;;5070797;28;20025;-82
2022/02/23 07:11:16;;;;;;;8.05;2.15;;;9.40;82.40;;;;;;5072135;28;20035;-83
2022/02/23 07:13:43;;;;;;;9.57;2.85;;;9.30;82.30;;;;;;5069491;28;20028;-83
2022/02/23 07:16:12;;;;;;;5.63;2.28;;;9.30;82.20;;;;;;5069515;28;20017;-83
2022/02/23 07:18:38;;;;;;;8.05;2.20;;;9.30;82.50;;;;;;5069616;28;20032;-84
2022/02/23 07:21:04;;;;;;;7.90;2.50;;;9.30;82.60;;;;;;5069697;28;20021;-82
2022/02/23 07:23:30;;;;;;;9.20;2.30;;;9.30;83.00;;;;;;5069412;28;20509;-82
2022/02/23 07:25:55;;;;;;;7.63;2.47;;;9.20;82.80;;;;;;5071418;28;20045;-83
2022/02/23 07:28:21;;;;;;;8.02;2.30;;;9.20;82.90;;;;;;5069417;28;20429;-82
2022/02/23 07:30:48;;;;;;;6.70;1.85;;;9.20;83.00;;;;;;5069241;28;20465;-82
2022/02/23 07:33:15;;;;;;;8.30;2.25;;;9.20;83.40;;;;;;5069226;28;20021;-82
2022/02/23 07:35:41;;;;;;;6.30;1.90;;;9.30;83.50;;;;;;5070261;28;20024;-80
2022/02/23 07:38:08;;;;;;;9.85;2.20;;;9.40;83.30;;;;;;5073592;28;20036;-81
2022/02/23 07:40:34;;;;;;;9.95;2.38;;;9.50;83.30;;;;;;5071651;28;20023;-79
2022/02/23 07:43:04;;;;;;;9.50;2.53;;;9.50;83.20;;;;;;5070271;28;20024;-79
2022/02/23 07:45:30;;;;;;;9.48;2.65;;;9.60;83.00;;;;;;5069889;28;20035;-80
2022/02/23 07:47:56;;;;;;;6.80;2.20;;;9.60;82.90;;;;;;5069082;28;20037;-80
2022/02/23 07:50:21;;;;;;;10.13;2.42;;;9.70;82.90;;;;;;5072579;28;20081;-80
2022/02/23 07:52:50;;;;;;;12.52;2.90;;;9.80;83.50;;;;;;5070176;28;20489;-79
2022/02/23 07:55:17;;;;;;;10.32;2.60;;;9.90;84.20;;;;;;5058637;28;20025;-83
2022/02/23 07:57:43;;;;;;;9.27;2.45;;;10.00;83.90;;;;;;5058932;28;20118;-82
2022/02/23 08:00:10;;;;;;;5.78;1.95;;;10.10;83.70;;;;;;5058964;28;20114;-83
2022/02/23 08:02:36;;;;;;;9.15;2.42;;;10.10;82.40;;;;;;5054446;28;20021;-84
2022/02/23 08:05:02;;;;;;;10.00;2.72;;;10.10;82.50;;;;;;5063427;28;20437;-85
2022/02/23 08:07:28;;;;;;;9.55;2.70;;;10.10;82.60;;;;;;5062424;28;20035;-84
2022/02/23 08:09:54;;;;;;;10.88;2.17;;;10.20;82.50;;;;;;5056492;28;20405;-83
2022/02/23 08:12:19;;;;;;;9.32;2.40;;;10.20;82.40;;;;;;5054299;28;20017;-85
2022/02/23 08:14:45;;;;;;;8.80;2.05;;;10.20;82.50;;;;;;5066619;28;20043;-82
2022/02/23 08:20:07;;;;;;;6.38;1.85;;;10.30;82.30;;;;;;5036544;28;20402;-84
2022/02/23 08:22:32;;;;;;;8.40;2.22;;;10.30;82.00;;;;;;5038001;28;20037;-83
2022/02/23 08:24:58;;;;;;;8.30;2.60;;;10.40;82.20;;;;;;5051913;28;20624;-85
2022/02/23 08:27:26;;;;;;;9.63;2.45;;;10.40;82.10;;;;;;5051410;28;20132;-84
2022/02/23 08:29:53;;;;;;;9.52;2.50;;;10.50;82.40;;;;;;5045298;28;20045;-86
2022/02/23 08:32:20;;;;;;;5.93;2.28;;;10.60;81.90;;;;;;5049946;28;20490;-84
2022/02/23 08:34:47;;;;;;;7.80;2.08;;;10.70;81.70;;;;;;5048425;28;20028;-84
2022/02/23 08:37:14;;;;;;;10.45;2.47;;;10.70;81.50;;;;;;5048146;28;20037;-83
2022/02/23 08:39:41;;;;;;;9.18;2.20;;;10.70;81.20;;;;;;5047073;28;20029;-87
2022/02/23 08:42:10;;;;;;;7.50;2.00;;;10.80;81.30;;;;;;5036338;28;20422;-89
2022/02/23 08:44:36;;;;;;;10.68;2.75;;;10.80;80.90;;;;;;5052941;28;20033;-87
2022/02/23 08:47:03;;;;;;;12.23;2.60;;;10.90;81.10;;;;;;5037416;28;20041;-86
2022/02/23 08:49:29;;;;;;;11.05;2.05;;;11.00;81.00;;;;;;5053482;28;20079;-86
2022/02/23 08:51:55;;;;;;;7.03;1.88;;;11.00;80.70;;;;;;5043006;28;20029;-87
2022/02/23 08:54:22;;;;;;;8.40;1.83;;;11.10;81.50;;;;;;5055226;28;20497;-90
2022/02/23 08:56:48;;;;;;;9.27;2.13;;;11.20;80.00;;;;;;5064175;28;20033;-90
2022/02/23 08:59:14;;;;;;;8.68;2.30;;;11.20;80.00;;;;;;5076608;28;20024;-91
2022/02/23 09:01:41;;;;;;;7.70;1.60;;;11.30;81.00;;;;;;5073597;28;20028;-90
2022/02/23 09:04:06;;;;;;;13.65;3.00;;;11.30;79.20;;;;;;5073114;28;21613;-88
2022/02/23 09:06:35;;;;;;;11.55;2.40;;;11.30;78.80;;;;;;5073944;28;20480;-90
2022/02/23 09:09:05;;;;;;;10.02;2.30;;;11.30;78.40;;;;;;5088137;28;20404;-89
2022/02/23 09:11:31;;;;;;;10.57;2.70;;;11.30;78.60;;;;;;5074584;28;20028;-90
2022/02/23 09:13:57;;;;;;;8.88;1.80;;;11.40;78.80;;;;;;5061125;28;20013;-89
2022/02/23 09:16:22;;;;;;;7.35;1.98;;;11.40;78.30;;;;;;5075029;28;20096;-84
2022/02/23 09:18:48;;;;;;;7.22;1.70;;;11.50;77.70;;;;;;5078026;28;20067;-86
2022/02/23 09:21:14;;;;;;;9.23;2.10;;;11.60;77.80;;;;;;5092108;28;20052;-83
2022/02/23 09:23:39;;;;;;;7.95;1.77;;;11.60;77.70;;;;;;5073885;28;20028;-84
2022/02/23 09:26:07;;;;;;;7.03;2.00;;;11.60;77.90;;;;;;5073796;28;20079;-85
2022/02/23 09:28:34;;;;;;;9.55;2.40;;;11.60;77.70;;;;;;5075178;28;20085;-83
2022/02/23 09:31:00;;;;;;;8.40;2.10;;;11.70;78.50;;;;;;5102523;28;20058;-93
2022/02/23 09:33:25;;;;;;;9.40;2.20;;;11.80;77.00;;;;;;5072621;28;20067;-91
2022/02/23 09:35:51;;;;;;;5.93;1.70;;;11.90;77.20;;;;;;5071380;28;20081;-90
2022/02/23 09:38:18;;;;;;;8.23;1.83;;;11.90;76.60;;;;;;5075595;28;20059;-91
2022/02/23 09:40:52;;;;;;;9.48;2.05;;;11.90;76.50;;;;;;5074955;28;20519;-92
2022/02/23 09:43:21;;;;;;;8.43;2.05;;;11.90;76.10;;;;;;5078397;28;20028;-79
2022/02/23 09:45:53;;;;;;;10.68;2.03;;;11.90;75.10;;;;;;5068534;28;20036;-82
2022/02/23 09:48:31;;;;;;;9.20;2.20;;;11.90;76.20;;;;;;5068586;28;20029;-85
2022/02/23 09:50:59;;;;;;;4.82;1.70;;;12.00;76.60;;;;;;5070299;28;20123;-87
2022/02/23 09:53:25;;;;;;;7.13;1.90;;;12.10;76.00;;;;;;5070899;28;20039;-86
2022/02/23 09:55:56;;;;;;;7.93;2.25;;;12.10;76.20;;;;;;5067865;28;20016;-87
2022/02/23 09:58:23;;;;;;;8.18;2.10;;;12.10;75.80;;;;;;5068908;28;20016;-87
2022/02/23 10:00:49;;;;;;;6.82;1.98;;;12.20;76.10;;;;;;5076967;28;20485;-85
2022/02/23 10:03:16;;;;;;;8.68;2.10;;;12.30;76.50;;;;;;5064126;28;20020;-85
2022/02/23 10:05:45;;;;;;;7.00;2.17;;;12.20;75.20;;;;;;5070489;28;20628;-85
2022/02/23 10:08:12;;;;;;;8.18;2.08;;;12.20;75.60;;;;;;5069540;28;20036;-86
2022/02/23 10:10:39;;;;;;;9.10;2.28;;;12.10;75.60;;;;;;5069910;28;20159;-86
2022/02/23 10:13:07;;;;;;;7.85;2.50;;;12.10;76.10;;;;;;5069888;28;20469;-86
2022/02/23 10:15:43;;;;;;;10.38;3.03;;;12.00;76.10;;;;;;5066776;28;20052;-83
2022/02/23 10:18:12;;;;;;;10.77;2.83;;;12.00;76.60;;;;;;5065352;28;20027;-86
2022/02/23 10:20:39;;;;;;;11.73;2.88;;;12.10;76.50;;;;;;5065054;28;20013;-84
2022/02/23 10:23:20;;;;;;;8.80;2.22;;;12.20;76.30;;;;;;5059717;28;20048;-81
2022/02/23 10:26:02;;;;;;;8.05;1.88;;;12.20;75.30;;;;;;5066519;28;20048;-82
2022/02/23 10:28:30;;;;;;;9.90;2.42;;;12.10;75.00;;;;;;5069488;28;20792;-77
2022/02/23 10:30:58;;;;;;;10.02;2.08;;;12.10;74.40;;;;;;5069091;28;20425;-86
2022/02/23 10:33:33;;;;;;;7.05;2.15;;;12.20;73.40;;;;;;5070626;28;20024;-85
2022/02/23 10:36:05;;;;;;;7.05;1.85;;;12.10;74.10;;;;;;5070338;28;20419;-77
2022/02/23 10:38:37;;;;;;;7.37;2.10;;;12.10;74.40;;;;;;5069644;28;20050;-80
2022/02/23 10:41:06;;;;;;;8.07;2.17;;;12.20;74.00;;;;;;5067851;28;20358;-79
2022/02/23 10:43:37;;;;;;;12.35;2.33;;;12.30;74.10;;;;;;5068916;28;20400;-80
2022/02/23 10:46:05;;;;;;;11.77;3.22;;;12.30;73.60;;;;;;5067358;28;20024;-79
2022/02/23 10:48:33;;;;;;;11.55;2.35;;;12.20;73.40;;;;;;5066079;28;20055;-79
2022/02/23 10:50:59;;;;;;;8.32;2.63;;;12.30;74.00;;;;;;5066120;28;20032;-79
2022/02/23 10:53:27;;;;;;;9.20;2.33;;;12.40;74.30;;;;;;5067495;28;20447;-80
2022/02/23 10:55:53;;;;;;;9.13;2.28;;;12.40;74.00;;;;;;5070204;28;20024;-80
2022/02/23 10:58:19;;;;;;;11.02;2.25;;;12.40;74.00;;;;;;5069216;28;20496;-80
2022/02/23 11:00:49;;;;;;;11.50;2.42;;;12.30;73.50;;;;;;5066178;28;20028;-80
2022/02/23 11:03:18;;;;;;;10.57;2.47;;;12.30;73.10;;;;;;5069318;28;20438;-80
2022/02/23 11:05:46;;;;;;;8.35;2.20;;;12.40;72.80;;;;;;5069007;28;20108;-81
2022/02/23 11:08:14;;;;;;;9.75;2.45;;;12.40;73.20;;;;;;5067179;28;20044;-80
2022/02/23 11:10:43;;;;;;;8.45;2.47;;;12.50;73.30;;;;;;5067251;28;20020;-80
2022/02/23 11:13:12;;;;;;;10.35;2.70;;;12.50;73.20;;;;;;5066766;28;20036;-80
2022/02/23 11:15:44;;;;;;;5.43;2.17;;;12.50;72.00;;;;;;5065645;28;20021;-80
2022/02/23 11:18:15;;;;;;;9.43;2.58;;;12.50;72.60;;;;;;5067048;28;20032;-80
2022/02/23 11:20:46;;;;;;;9.23;2.00;;;12.50;72.30;;;;;;5066295;28;20497;-80
2022/02/23 11:23:19;;;;;;;10.88;2.50;;;12.50;72.00;;;;;;5067321;28;20032;-80
2022/02/23 11:25:48;;;;;;;10.57;2.17;;;12.30;70.60;;;;;;5064600;28;20048;-81
2022/02/23 11:28:19;;;;;;;7.55;1.80;;;12.20;68.40;;;;;;5074146;28;20101;-81
2022/02/23 11:30:45;;;;;;;7.00;1.85;;;12.20;70.00;;;;;;5065443;28;20029;-81
2022/02/23 11:33:11;;;;;;;13.20;2.60;;;12.30;69.00;;;;;;5065995;28;20027;-79
2022/02/23 11:35:46;;;;;;;9.00;2.40;;;12.60;71.40;;;;;;5063548;28;20028;-80
2022/02/23 11:38:20;;;;;;;10.57;2.22;;;12.70;69.80;;;;;;5065985;28;20032;-81
2022/02/23 11:40:57;;;;;;;7.93;1.90;;;12.90;70.00;;;;;;5065305;28;20033;-79
2022/02/23 11:43:39;;;;;;;9.23;1.90;;;12.90;66.60;;;;;;5063258;28;20036;-80
2022/02/23 11:46:07;;;;;;;8.98;1.80;;;12.90;67.60;;;;;;5061356;28;20055;-79
2022/02/23 11:48:56;;;;;;;6.55;1.63;;;13.00;68.10;;;;;;5063301;28;20051;-79
2022/02/23 11:51:30;;;;;;;7.85;2.00;;;13.00;68.40;;;;;;5063887;28;20039;-85
2022/02/23 11:53:57;;;;;;;8.60;1.80;;;13.10;67.00;;;;;;5063155;28;20037;-79
2022/02/23 11:56:22;;;;;;;7.75;1.80;;;13.00;65.50;;;;;;5063996;28;20086;-79
2022/02/23 11:58:51;;;;;;;6.43;1.30;;;12.90;66.40;;;;;;5064250;28;20032;-80
2022/02/23 12:01:20;;;;;;;7.45;1.60;;;12.60;64.70;;;;;;5060641;28;20063;-78
2022/02/23 12:04:05;;;;;;;7.82;1.67;;;12.70;65.90;;;;;;5064456;28;20037;-79
2022/02/23 12:07:09;;;;;;;5.43;1.40;;;12.60;62.70;;;;;;5063430;28;20020;-79
2022/02/23 12:09:57;;;;;;;8.65;1.40;;;12.60;64.50;;;;;;5064115;28;20090;-78
2022/02/23 12:12:38;;;;;;;7.72;1.40;;;13.00;66.90;;;;;;5062675;28;20032;-78
2022/02/23 12:15:22;;;;;;;4.75;1.40;;;12.90;65.20;;;;;;5059175;28;20024;-78
2022/02/23 12:17:54;;;;;;;6.40;1.50;;;12.80;63.70;;;;;;5064425;28;20572;-80
2022/02/23 12:20:47;;;;;;;4.32;1.27;;;12.80;64.80;;;;;;5063460;28;20025;-81
2022/02/23 12:23:18;;;;;;;4.63;1.23;;;13.10;67.20;;;;;;5063809;28;20036;-80
2022/02/23 12:25:49;;;;;;;5.60;1.30;;;13.30;66.30;;;;;;5061304;28;20084;-83
2022/02/23 12:28:18;;;;;;;6.65;2.80;;;13.20;63.30;;;;;;5064631;28;20109;-86
2022/02/23 12:31:06;;;;;;;8.02;1.70;;;13.10;64.20;;;;;;5066251;28;20056;-82
2022/02/23 12:33:32;;;;;;;8.45;1.60;;;13.20;65.10;;;;;;5063899;28;20036;-84
2022/02/23 12:36:06;;;;;;;5.13;1.50;;;13.10;62.50;;;;;;5065033;28;20031;-85
2022/02/23 12:38:34;;;;;;;6.47;2.28;;;12.90;62.10;;;;;;5065644;28;20032;-83
2022/02/23 12:41:10;;;;;;;4.47;1.23;;;12.90;63.00;;;;;;5067434;28;20031;-89
2022/02/23 12:43:40;;;;;;;5.10;1.52;;;12.90;62.70;;;;;;5065266;28;20525;-81
2022/02/23 12:46:06;;;;;;;6.13;1.27;;;13.00;64.10;;;;;;5060243;28;20530;-79
2022/02/23 12:48:34;;;;;;;5.93;1.23;;;13.00;63.40;;;;;;5063228;28;20036;-78
2022/02/23 12:51:02;;;;;;;8.23;1.77;;;13.00;62.70;;;;;;5080159;28;20025;-80
2022/02/23 12:53:35;;;;;;;4.65;1.33;;;13.00;62.70;;;;;;5065094;28;20028;-79